sensor_id;sensor_type;location;lat;lon;timestamp;P1;durP1;ratioP1;P2;durP2;ratioP2
9761;SDS011;4920;49.594;11.022;2022-10-31T00:01:10;28.67;;;14.90;;
9761;SDS011;4920;49.594;11.022;2022-10-31T00:03:39;21.77;;;13.73;;
9761;SDS011;4920;49.594;11.022;2022-10-31T00:06:07;23.33;;;14.03;;
9761;SDS011;4920;49.594;11.022;2022-10-31T00:08:36;22.80;;;13.60;;
9761;SDS011;4920;49.594;11.022;2022-10-31T00:11:07;22.23;;;13.00;;
9761;SDS011;4920;49.594;11.022;2022-10-31T00:13:36;22.67;;;13.03;;
9761;SDS011;4920;49.594;11.022;2022-10-31T00:16:05;23.17;;;12.73;;
9761;SDS011;4920;49.594;11.022;2022-10-31T00:18:42;24.13;;;12.07;;
9761;SDS011;4920;49.594;11.022;2022-10-31T00:21:10;22.83;;;11.80;;
9761;SDS011;4920;49.594;11.022;2022-10-31T00:23:38;23.77;;;11.87;;
9761;SDS011;4920;49.594;11.022;2022-10-31T00:26:06;17.33;;;10.20;;
9761;SDS011;4920;49.594;11.022;2022-10-31T00:28:34;14.93;;;10.10;;
9761;SDS011;4920;49.594;11.022;2022-10-31T00:31:04;17.13;;;10.03;;
9761;SDS011;4920;49.594;11.022;2022-10-31T00:33:35;16.90;;;11.20;;
9761;SDS011;4920;49.594;11.022;2022-10-31T00:36:04;18.73;;;11.97;;
9761;SDS011;4920;49.594;11.022;2022-10-31T00:38:33;18.70;;;10.47;;
9761;SDS011;4920;49.594;11.022;2022-10-31T00:41:02;16.70;;;10.00;;
9761;SDS011;4920;49.594;11.022;2022-10-31T00:43:30;17.93;;;10.27;;
9761;SDS011;4920;49.594;11.022;2022-10-31T00:45:58;19.23;;;9.90;;
9761;SDS011;4920;49.594;11.022;2022-10-31T00:48:27;19.30;;;11.77;;
9761;SDS011;4920;49.594;11.022;2022-10-31T00:50:57;22.07;;;12.57;;
9761;SDS011;4920;49.594;11.022;2022-10-31T00:53:26;23.67;;;13.17;;
9761;SDS011;4920;49.594;11.022;2022-10-31T00:55:54;22.33;;;12.43;;
9761;SDS011;4920;49.594;11.022;2022-10-31T00:58:22;23.27;;;10.80;;
9761;SDS011;4920;49.594;11.022;2022-10-31T01:00:51;21.20;;;11.53;;
9761;SDS011;4920;49.594;11.022;2022-10-31T01:03:22;17.83;;;10.77;;
9761;SDS011;4920;49.594;11.022;2022-10-31T01:05:55;21.53;;;11.27;;
9761;SDS011;4920;49.594;11.022;2022-10-31T01:08:26;19.73;;;12.00;;
9761;SDS011;4920;49.594;11.022;2022-10-31T01:10:59;21.20;;;13.30;;
9761;SDS011;4920;49.594;11.022;2022-10-31T01:13:29;18.17;;;12.40;;
9761;SDS011;4920;49.594;11.022;2022-10-31T01:15:57;16.93;;;12.97;;
9761;SDS011;4920;49.594;11.022;2022-10-31T01:18:27;16.33;;;11.97;;
9761;SDS011;4920;49.594;11.022;2022-10-31T01:21:01;21.10;;;12.70;;
9761;SDS011;4920;49.594;11.022;2022-10-31T01:23:31;20.17;;;13.17;;
9761;SDS011;4920;49.594;11.022;2022-10-31T01:26:03;20.03;;;13.50;;
9761;SDS011;4920;49.594;11.022;2022-10-31T01:28:34;21.40;;;12.03;;
9761;SDS011;4920;49.594;11.022;2022-10-31T01:31:04;18.27;;;11.93;;
9761;SDS011;4920;49.594;11.022;2022-10-31T01:33:34;19.60;;;12.10;;
9761;SDS011;4920;49.594;11.022;2022-10-31T01:36:12;21.20;;;12.60;;
9761;SDS011;4920;49.594;11.022;2022-10-31T01:38:42;19.20;;;12.20;;
9761;SDS011;4920;49.594;11.022;2022-10-31T01:41:11;21.30;;;11.40;;
9761;SDS011;4920;49.594;11.022;2022-10-31T01:43:42;17.97;;;11.50;;
9761;SDS011;4920;49.594;11.022;2022-10-31T01:46:11;22.63;;;10.60;;
9761;SDS011;4920;49.594;11.022;2022-10-31T01:48:39;21.20;;;11.87;;
9761;SDS011;4920;49.594;11.022;2022-10-31T01:51:09;18.17;;;11.33;;
9761;SDS011;4920;49.594;11.022;2022-10-31T01:53:42;20.63;;;11.23;;
9761;SDS011;4920;49.594;11.022;2022-10-31T01:56:12;18.57;;;12.73;;
9761;SDS011;4920;49.594;11.022;2022-10-31T01:58:42;16.80;;;12.07;;
9761;SDS011;4920;49.594;11.022;2022-10-31T02:01:14;18.33;;;11.13;;
9761;SDS011;4920;49.594;11.022;2022-10-31T02:03:45;17.00;;;12.10;;
9761;SDS011;4920;49.594;11.022;2022-10-31T02:06:19;19.27;;;12.10;;
9761;SDS011;4920;49.594;11.022;2022-10-31T02:08:55;20.50;;;12.83;;
9761;SDS011;4920;49.594;11.022;2022-10-31T02:11:27;22.73;;;12.73;;
9761;SDS011;4920;49.594;11.022;2022-10-31T02:13:55;32.30;;;13.97;;
9761;SDS011;4920;49.594;11.022;2022-10-31T02:16:25;23.47;;;14.00;;
9761;SDS011;4920;49.594;11.022;2022-10-31T02:18:53;29.57;;;13.53;;
9761;SDS011;4920;49.594;11.022;2022-10-31T02:21:25;39.67;;;14.90;;
9761;SDS011;4920;49.594;11.022;2022-10-31T02:30:15;45.67;;;16.23;;
9761;SDS011;4920;49.594;11.022;2022-10-31T02:33:02;33.27;;;13.87;;
9761;SDS011;4920;49.594;11.022;2022-10-31T02:35:42;27.03;;;12.87;;
9761;SDS011;4920;49.594;11.022;2022-10-31T02:38:25;27.53;;;13.17;;
9761;SDS011;4920;49.594;11.022;2022-10-31T02:41:10;30.60;;;12.47;;
9761;SDS011;4920;49.594;11.022;2022-10-31T02:43:54;43.27;;;13.80;;
9761;SDS011;4920;49.594;11.022;2022-10-31T02:46:30;47.97;;;14.63;;
9761;SDS011;4920;49.594;11.022;2022-10-31T02:49:05;29.77;;;13.30;;
9761;SDS011;4920;49.594;11.022;2022-10-31T02:51:38;31.20;;;13.60;;
9761;SDS011;4920;49.594;11.022;2022-10-31T02:54:16;22.43;;;13.50;;
9761;SDS011;4920;49.594;11.022;2022-10-31T02:56:50;26.10;;;13.90;;
9761;SDS011;4920;49.594;11.022;2022-10-31T02:59:22;45.00;;;15.47;;
9761;SDS011;4920;49.594;11.022;2022-10-31T03:02:01;35.97;;;16.00;;
9761;SDS011;4920;49.594;11.022;2022-10-31T03:07:47;29.80;;;15.00;;
9761;SDS011;4920;49.594;11.022;2022-10-31T03:10:25;29.53;;;15.37;;
9761;SDS011;4920;49.594;11.022;2022-10-31T03:13:05;36.77;;;15.70;;
9761;SDS011;4920;49.594;11.022;2022-10-31T03:15:40;30.33;;;15.57;;
9761;SDS011;4920;49.594;11.022;2022-10-31T03:18:13;54.43;;;16.57;;
9761;SDS011;4920;49.594;11.022;2022-10-31T03:20:49;69.00;;;17.27;;
9761;SDS011;4920;49.594;11.022;2022-10-31T03:23:23;77.37;;;17.80;;
9761;SDS011;4920;49.594;11.022;2022-10-31T03:25:53;78.43;;;16.33;;
9761;SDS011;4920;49.594;11.022;2022-10-31T03:28:26;49.07;;;16.13;;
9761;SDS011;4920;49.594;11.022;2022-10-31T03:30:57;58.10;;;16.47;;
9761;SDS011;4920;49.594;11.022;2022-10-31T03:33:32;72.37;;;16.30;;
9761;SDS011;4920;49.594;11.022;2022-10-31T03:36:04;40.00;;;14.83;;
9761;SDS011;4920;49.594;11.022;2022-10-31T03:38:37;31.27;;;14.93;;
9761;SDS011;4920;49.594;11.022;2022-10-31T03:41:10;31.63;;;14.90;;
9761;SDS011;4920;49.594;11.022;2022-10-31T03:43:45;32.60;;;14.63;;
9761;SDS011;4920;49.594;11.022;2022-10-31T03:46:18;41.47;;;16.63;;
9761;SDS011;4920;49.594;11.022;2022-10-31T03:48:48;34.27;;;16.17;;
9761;SDS011;4920;49.594;11.022;2022-10-31T03:51:20;27.30;;;15.13;;
9761;SDS011;4920;49.594;11.022;2022-10-31T03:53:56;31.73;;;15.47;;
9761;SDS011;4920;49.594;11.022;2022-10-31T03:56:31;25.67;;;13.93;;
9761;SDS011;4920;49.594;11.022;2022-10-31T03:59:04;22.10;;;13.80;;
9761;SDS011;4920;49.594;11.022;2022-10-31T04:01:37;31.93;;;14.50;;
9761;SDS011;4920;49.594;11.022;2022-10-31T04:04:10;31.63;;;15.23;;
9761;SDS011;4920;49.594;11.022;2022-10-31T04:06:39;27.80;;;14.70;;
9761;SDS011;4920;49.594;11.022;2022-10-31T04:09:11;25.83;;;14.47;;
9761;SDS011;4920;49.594;11.022;2022-10-31T04:11:42;29.60;;;14.63;;
9761;SDS011;4920;49.594;11.022;2022-10-31T04:14:53;30.30;;;14.43;;
9761;SDS011;4920;49.594;11.022;2022-10-31T04:17:23;28.90;;;14.67;;
9761;SDS011;4920;49.594;11.022;2022-10-31T04:19:58;26.43;;;13.87;;
9761;SDS011;4920;49.594;11.022;2022-10-31T04:22:28;16.53;;;11.67;;
9761;SDS011;4920;49.594;11.022;2022-10-31T04:24:58;15.60;;;11.37;;
9761;SDS011;4920;49.594;11.022;2022-10-31T04:27:26;18.13;;;11.43;;
9761;SDS011;4920;49.594;11.022;2022-10-31T04:29:55;14.87;;;11.80;;
9761;SDS011;4920;49.594;11.022;2022-10-31T04:32:23;15.77;;;11.40;;
9761;SDS011;4920;49.594;11.022;2022-10-31T04:34:54;16.60;;;11.47;;
9761;SDS011;4920;49.594;11.022;2022-10-31T04:37:22;17.60;;;11.07;;
9761;SDS011;4920;49.594;11.022;2022-10-31T04:39:50;15.83;;;11.07;;
9761;SDS011;4920;49.594;11.022;2022-10-31T04:42:46;14.00;;;10.73;;
9761;SDS011;4920;49.594;11.022;2022-10-31T04:45:14;13.50;;;10.87;;
9761;SDS011;4920;49.594;11.022;2022-10-31T04:47:49;19.43;;;11.73;;
9761;SDS011;4920;49.594;11.022;2022-10-31T04:50:17;41.50;;;12.47;;
9761;SDS011;4920;49.594;11.022;2022-10-31T04:52:46;30.10;;;12.33;;
9761;SDS011;4920;49.594;11.022;2022-10-31T04:55:19;39.70;;;12.87;;
9761;SDS011;4920;49.594;11.022;2022-10-31T04:57:49;24.53;;;12.93;;
9761;SDS011;4920;49.594;11.022;2022-10-31T05:00:19;22.67;;;12.97;;
9761;SDS011;4920;49.594;11.022;2022-10-31T05:02:50;37.20;;;13.07;;
9761;SDS011;4920;49.594;11.022;2022-10-31T05:05:20;29.87;;;13.67;;
9761;SDS011;4920;49.594;11.022;2022-10-31T05:07:51;19.23;;;13.60;;
9761;SDS011;4920;49.594;11.022;2022-10-31T05:10:23;25.43;;;14.23;;
9761;SDS011;4920;49.594;11.022;2022-10-31T05:12:56;37.77;;;14.20;;
9761;SDS011;4920;49.594;11.022;2022-10-31T05:15:44;33.37;;;14.03;;
9761;SDS011;4920;49.594;11.022;2022-10-31T05:18:33;28.57;;;13.80;;
9761;SDS011;4920;49.594;11.022;2022-10-31T05:21:20;24.23;;;14.17;;
9761;SDS011;4920;49.594;11.022;2022-10-31T05:23:54;24.13;;;13.67;;
9761;SDS011;4920;49.594;11.022;2022-10-31T05:26:23;20.80;;;13.17;;
9761;SDS011;4920;49.594;11.022;2022-10-31T05:28:54;18.03;;;12.87;;
9761;SDS011;4920;49.594;11.022;2022-10-31T05:31:23;20.50;;;13.10;;
9761;SDS011;4920;49.594;11.022;2022-10-31T05:33:54;19.70;;;12.17;;
9761;SDS011;4920;49.594;11.022;2022-10-31T05:36:40;19.60;;;11.87;;
9761;SDS011;4920;49.594;11.022;2022-10-31T05:39:21;22.57;;;12.23;;
9761;SDS011;4920;49.594;11.022;2022-10-31T05:41:54;20.83;;;12.67;;
9761;SDS011;4920;49.594;11.022;2022-10-31T05:44:26;16.60;;;11.83;;
9761;SDS011;4920;49.594;11.022;2022-10-31T05:47:21;20.00;;;11.40;;
9761;SDS011;4920;49.594;11.022;2022-10-31T05:49:55;20.70;;;11.83;;
9761;SDS011;4920;49.594;11.022;2022-10-31T05:52:42;15.07;;;10.87;;
9761;SDS011;4920;49.594;11.022;2022-10-31T05:55:20;18.60;;;11.07;;
9761;SDS011;4920;49.594;11.022;2022-10-31T05:58:02;16.07;;;10.80;;
9761;SDS011;4920;49.594;11.022;2022-10-31T06:00:33;18.03;;;11.20;;
9761;SDS011;4920;49.594;11.022;2022-10-31T06:03:06;18.10;;;11.50;;
9761;SDS011;4920;49.594;11.022;2022-10-31T06:05:58;17.63;;;10.70;;
9761;SDS011;4920;49.594;11.022;2022-10-31T06:08:36;18.47;;;11.53;;
9761;SDS011;4920;49.594;11.022;2022-10-31T06:11:09;19.67;;;11.07;;
9761;SDS011;4920;49.594;11.022;2022-10-31T06:14:00;26.67;;;11.53;;
9761;SDS011;4920;49.594;11.022;2022-10-31T06:16:50;25.33;;;11.80;;
9761;SDS011;4920;49.594;11.022;2022-10-31T06:19:37;20.13;;;10.70;;
9761;SDS011;4920;49.594;11.022;2022-10-31T06:22:07;30.53;;;12.03;;
9761;SDS011;4920;49.594;11.022;2022-10-31T06:24:38;30.83;;;12.07;;
9761;SDS011;4920;49.594;11.022;2022-10-31T06:27:25;27.03;;;11.23;;
9761;SDS011;4920;49.594;11.022;2022-10-31T06:29:54;21.23;;;11.67;;
9761;SDS011;4920;49.594;11.022;2022-10-31T06:32:31;28.07;;;11.70;;
9761;SDS011;4920;49.594;11.022;2022-10-31T06:34:59;20.50;;;11.90;;
9761;SDS011;4920;49.594;11.022;2022-10-31T06:37:28;28.87;;;11.57;;
9761;SDS011;4920;49.594;11.022;2022-10-31T06:40:03;42.43;;;12.33;;
9761;SDS011;4920;49.594;11.022;2022-10-31T06:42:46;26.37;;;12.43;;
9761;SDS011;4920;49.594;11.022;2022-10-31T06:45:14;24.40;;;12.23;;
9761;SDS011;4920;49.594;11.022;2022-10-31T06:48:10;22.80;;;13.10;;
9761;SDS011;4920;49.594;11.022;2022-10-31T06:51:09;22.47;;;11.17;;
9761;SDS011;4920;49.594;11.022;2022-10-31T06:53:38;46.20;;;33.27;;
9761;SDS011;4920;49.594;11.022;2022-10-31T06:56:09;42.13;;;16.20;;
9761;SDS011;4920;49.594;11.022;2022-10-31T06:58:43;32.53;;;12.40;;
9761;SDS011;4920;49.594;11.022;2022-10-31T07:01:12;38.10;;;11.40;;
9761;SDS011;4920;49.594;11.022;2022-10-31T07:03:42;48.50;;;11.83;;
9761;SDS011;4920;49.594;11.022;2022-10-31T07:06:10;33.80;;;12.47;;
9761;SDS011;4920;49.594;11.022;2022-10-31T07:08:39;24.07;;;11.90;;
9761;SDS011;4920;49.594;11.022;2022-10-31T07:11:07;47.77;;;12.10;;
9761;SDS011;4920;49.594;11.022;2022-10-31T07:13:37;23.40;;;12.13;;
9761;SDS011;4920;49.594;11.022;2022-10-31T07:16:07;23.07;;;11.97;;
9761;SDS011;4920;49.594;11.022;2022-10-31T07:18:39;19.83;;;10.17;;
9761;SDS011;4920;49.594;11.022;2022-10-31T07:21:09;25.00;;;16.53;;
9761;SDS011;4920;49.594;11.022;2022-10-31T07:23:38;23.20;;;13.97;;
9761;SDS011;4920;49.594;11.022;2022-10-31T07:26:29;31.90;;;26.63;;
9761;SDS011;4920;49.594;11.022;2022-10-31T07:28:58;19.30;;;13.60;;
9761;SDS011;4920;49.594;11.022;2022-10-31T07:31:27;19.50;;;11.33;;
9761;SDS011;4920;49.594;11.022;2022-10-31T07:34:01;18.90;;;11.80;;
9761;SDS011;4920;49.594;11.022;2022-10-31T07:36:49;15.87;;;9.53;;
9761;SDS011;4920;49.594;11.022;2022-10-31T07:39:19;14.67;;;9.03;;
9761;SDS011;4920;49.594;11.022;2022-10-31T07:41:47;13.73;;;8.77;;
9761;SDS011;4920;49.594;11.022;2022-10-31T07:44:18;14.33;;;8.53;;
9761;SDS011;4920;49.594;11.022;2022-10-31T07:47:09;15.10;;;8.27;;
9761;SDS011;4920;49.594;11.022;2022-10-31T07:49:56;14.43;;;8.03;;
9761;SDS011;4920;49.594;11.022;2022-10-31T07:52:44;18.37;;;8.30;;
9761;SDS011;4920;49.594;11.022;2022-10-31T07:55:37;11.63;;;8.50;;
9761;SDS011;4920;49.594;11.022;2022-10-31T07:58:07;17.30;;;9.23;;
9761;SDS011;4920;49.594;11.022;2022-10-31T08:00:38;17.30;;;9.33;;
9761;SDS011;4920;49.594;11.022;2022-10-31T08:03:10;15.50;;;9.70;;
9761;SDS011;4920;49.594;11.022;2022-10-31T08:06:05;16.60;;;10.43;;
9761;SDS011;4920;49.594;11.022;2022-10-31T08:08:58;14.93;;;9.57;;
9761;SDS011;4920;49.594;11.022;2022-10-31T08:11:26;17.03;;;8.70;;
9761;SDS011;4920;49.594;11.022;2022-10-31T08:13:54;20.43;;;9.97;;
9761;SDS011;4920;49.594;11.022;2022-10-31T08:16:22;14.80;;;9.80;;
9761;SDS011;4920;49.594;11.022;2022-10-31T08:18:56;13.53;;;8.83;;
9761;SDS011;4920;49.594;11.022;2022-10-31T08:21:24;12.07;;;8.23;;
9761;SDS011;4920;49.594;11.022;2022-10-31T08:23:52;13.00;;;8.33;;
9761;SDS011;4920;49.594;11.022;2022-10-31T08:26:24;15.77;;;10.57;;
9761;SDS011;4920;49.594;11.022;2022-10-31T08:28:54;20.37;;;12.83;;
9761;SDS011;4920;49.594;11.022;2022-10-31T08:31:26;20.38;;;10.57;;
9761;SDS011;4920;49.594;11.022;2022-10-31T08:34:19;18.40;;;11.10;;
9761;SDS011;4920;49.594;11.022;2022-10-31T08:37:06;17.25;;;10.50;;
9761;SDS011;4920;49.594;11.022;2022-10-31T08:39:44;16.87;;;10.53;;
9761;SDS011;4920;49.594;11.022;2022-10-31T08:42:14;36.58;;;11.02;;
9761;SDS011;4920;49.594;11.022;2022-10-31T08:44:43;26.45;;;10.65;;
9761;SDS011;4920;49.594;11.022;2022-10-31T08:47:12;21.33;;;12.35;;
9761;SDS011;4920;49.594;11.022;2022-10-31T08:49:40;18.65;;;13.23;;
9761;SDS011;4920;49.594;11.022;2022-10-31T08:52:08;27.65;;;10.02;;
9761;SDS011;4920;49.594;11.022;2022-10-31T08:54:40;17.03;;;9.20;;
9761;SDS011;4920;49.594;11.022;2022-10-31T08:57:28;16.85;;;8.40;;
9761;SDS011;4920;49.594;11.022;2022-10-31T08:59:58;13.87;;;7.93;;
9761;SDS011;4920;49.594;11.022;2022-10-31T09:02:46;13.48;;;7.85;;
9761;SDS011;4920;49.594;11.022;2022-10-31T09:05:14;9.05;;;7.43;;
9761;SDS011;4920;49.594;11.022;2022-10-31T09:07:43;9.83;;;7.47;;
9761;SDS011;4920;49.594;11.022;2022-10-31T09:10:11;9.52;;;7.70;;
9761;SDS011;4920;49.594;11.022;2022-10-31T09:12:42;9.27;;;7.60;;
9761;SDS011;4920;49.594;11.022;2022-10-31T09:15:30;8.85;;;7.00;;
9761;SDS011;4920;49.594;11.022;2022-10-31T09:18:12;7.80;;;7.00;;
9761;SDS011;4920;49.594;11.022;2022-10-31T09:20:57;8.52;;;6.90;;
9761;SDS011;4920;49.594;11.022;2022-10-31T09:23:28;9.27;;;7.00;;
9761;SDS011;4920;49.594;11.022;2022-10-31T09:25:59;9.45;;;6.95;;
9761;SDS011;4920;49.594;11.022;2022-10-31T09:28:48;9.55;;;6.85;;
9761;SDS011;4920;49.594;11.022;2022-10-31T09:31:17;8.02;;;6.60;;
9761;SDS011;4920;49.594;11.022;2022-10-31T09:33:58;7.90;;;7.10;;
9761;SDS011;4920;49.594;11.022;2022-10-31T09:36:35;8.02;;;6.10;;
9761;SDS011;4920;49.594;11.022;2022-10-31T09:39:09;7.63;;;6.72;;
9761;SDS011;4920;49.594;11.022;2022-10-31T09:41:43;9.02;;;7.35;;
9761;SDS011;4920;49.594;11.022;2022-10-31T09:44:26;10.52;;;7.18;;
9761;SDS011;4920;49.594;11.022;2022-10-31T09:46:57;11.45;;;6.57;;
9761;SDS011;4920;49.594;11.022;2022-10-31T09:49:35;9.98;;;7.30;;
9761;SDS011;4920;49.594;11.022;2022-10-31T09:52:17;9.80;;;7.03;;
9761;SDS011;4920;49.594;11.022;2022-10-31T09:54:50;9.93;;;6.88;;
9761;SDS011;4920;49.594;11.022;2022-10-31T09:57:22;9.07;;;7.13;;
9761;SDS011;4920;49.594;11.022;2022-10-31T09:59:57;7.97;;;7.18;;
9761;SDS011;4920;49.594;11.022;2022-10-31T10:02:27;10.50;;;7.22;;
9761;SDS011;4920;49.594;11.022;2022-10-31T10:05:01;9.43;;;7.32;;
9761;SDS011;4920;49.594;11.022;2022-10-31T10:07:37;9.82;;;7.93;;
9761;SDS011;4920;49.594;11.022;2022-10-31T10:10:34;11.32;;;9.00;;
9761;SDS011;4920;49.594;11.022;2022-10-31T10:13:44;11.60;;;8.50;;
9761;SDS011;4920;49.594;11.022;2022-10-31T10:19:27;14.80;;;9.55;;
9761;SDS011;4920;49.594;11.022;2022-10-31T10:22:09;13.32;;;9.57;;
9761;SDS011;4920;49.594;11.022;2022-10-31T10:24:50;15.40;;;9.80;;
9761;SDS011;4920;49.594;11.022;2022-10-31T10:27:33;14.32;;;9.45;;
9761;SDS011;4920;49.594;11.022;2022-10-31T10:30:11;14.27;;;8.77;;
9761;SDS011;4920;49.594;11.022;2022-10-31T10:32:45;11.45;;;8.60;;
9761;SDS011;4920;49.594;11.022;2022-10-31T10:35:20;12.38;;;9.32;;
9761;SDS011;4920;49.594;11.022;2022-10-31T10:37:52;10.20;;;8.77;;
9761;SDS011;4920;49.594;11.022;2022-10-31T10:40:27;11.20;;;8.40;;
9761;SDS011;4920;49.594;11.022;2022-10-31T10:42:58;11.88;;;8.15;;
9761;SDS011;4920;49.594;11.022;2022-10-31T10:45:49;13.43;;;8.05;;
9761;SDS011;4920;49.594;11.022;2022-10-31T10:48:42;11.38;;;7.57;;
9761;SDS011;4920;49.594;11.022;2022-10-31T10:51:15;12.38;;;8.07;;
9761;SDS011;4920;49.594;11.022;2022-10-31T10:54:15;9.98;;;6.97;;
9761;SDS011;4920;49.594;11.022;2022-10-31T10:56:59;13.00;;;7.65;;
9761;SDS011;4920;49.594;11.022;2022-10-31T10:59:33;13.38;;;8.40;;
9761;SDS011;4920;49.594;11.022;2022-10-31T11:02:03;10.90;;;7.43;;
9761;SDS011;4920;49.594;11.022;2022-10-31T11:04:44;12.48;;;7.35;;
9761;SDS011;4920;49.594;11.022;2022-10-31T11:07:14;13.50;;;6.93;;
9761;SDS011;4920;49.594;11.022;2022-10-31T11:09:43;9.85;;;7.38;;
9761;SDS011;4920;49.594;11.022;2022-10-31T11:12:17;10.00;;;6.05;;
9761;SDS011;4920;49.594;11.022;2022-10-31T11:14:50;13.13;;;6.85;;
9761;SDS011;4920;49.594;11.022;2022-10-31T11:17:22;8.57;;;6.40;;
9761;SDS011;4920;49.594;11.022;2022-10-31T11:20:02;13.45;;;6.93;;
9761;SDS011;4920;49.594;11.022;2022-10-31T11:22:32;8.75;;;6.90;;
9761;SDS011;4920;49.594;11.022;2022-10-31T11:25:00;9.10;;;6.97;;
9761;SDS011;4920;49.594;11.022;2022-10-31T11:27:28;9.98;;;6.85;;
9761;SDS011;4920;49.594;11.022;2022-10-31T11:30:03;9.85;;;7.10;;
9761;SDS011;4920;49.594;11.022;2022-10-31T11:32:33;13.07;;;7.25;;
9761;SDS011;4920;49.594;11.022;2022-10-31T11:35:03;12.05;;;7.47;;
9761;SDS011;4920;49.594;11.022;2022-10-31T11:37:40;11.50;;;7.53;;
9761;SDS011;4920;49.594;11.022;2022-10-31T11:40:14;10.68;;;7.30;;
9761;SDS011;4920;49.594;11.022;2022-10-31T11:42:45;10.65;;;7.25;;
9761;SDS011;4920;49.594;11.022;2022-10-31T11:45:15;14.52;;;7.88;;
9761;SDS011;4920;49.594;11.022;2022-10-31T11:47:46;9.52;;;7.63;;
9761;SDS011;4920;49.594;11.022;2022-10-31T11:50:27;10.00;;;7.38;;
9761;SDS011;4920;49.594;11.022;2022-10-31T11:53:00;12.68;;;7.80;;
9761;SDS011;4920;49.594;11.022;2022-10-31T11:55:31;11.07;;;7.53;;
9761;SDS011;4920;49.594;11.022;2022-10-31T11:58:01;12.20;;;7.32;;
9761;SDS011;4920;49.594;11.022;2022-10-31T12:00:31;14.43;;;7.35;;
9761;SDS011;4920;49.594;11.022;2022-10-31T12:03:04;13.48;;;7.35;;
9761;SDS011;4920;49.594;11.022;2022-10-31T12:05:43;10.70;;;6.97;;
9761;SDS011;4920;49.594;11.022;2022-10-31T12:08:13;12.82;;;7.65;;
9761;SDS011;4920;49.594;11.022;2022-10-31T12:10:44;12.15;;;6.95;;
9761;SDS011;4920;49.594;11.022;2022-10-31T12:13:31;11.25;;;6.80;;
9761;SDS011;4920;49.594;11.022;2022-10-31T12:16:04;10.05;;;7.32;;
9761;SDS011;4920;49.594;11.022;2022-10-31T12:21:33;13.48;;;6.68;;
9761;SDS011;4920;49.594;11.022;2022-10-31T12:24:12;12.52;;;7.13;;
9761;SDS011;4920;49.594;11.022;2022-10-31T12:26:52;11.85;;;7.10;;
9761;SDS011;4920;49.594;11.022;2022-10-31T12:29:32;10.77;;;6.80;;
9761;SDS011;4920;49.594;11.022;2022-10-31T12:32:15;14.93;;;7.22;;
9761;SDS011;4920;49.594;11.022;2022-10-31T12:34:58;11.48;;;7.28;;
9761;SDS011;4920;49.594;11.022;2022-10-31T12:37:39;13.68;;;7.03;;
9761;SDS011;4920;49.594;11.022;2022-10-31T12:40:22;13.18;;;7.55;;
9761;SDS011;4920;49.594;11.022;2022-10-31T12:43:05;13.98;;;7.03;;
9761;SDS011;4920;49.594;11.022;2022-10-31T12:45:45;12.02;;;7.07;;
9761;SDS011;4920;49.594;11.022;2022-10-31T12:51:26;12.60;;;6.93;;
9761;SDS011;4920;49.594;11.022;2022-10-31T12:54:12;14.20;;;7.18;;
9761;SDS011;4920;49.594;11.022;2022-10-31T12:56:58;10.98;;;6.40;;
9761;SDS011;4920;49.594;11.022;2022-10-31T12:59:33;11.90;;;6.90;;
9761;SDS011;4920;49.594;11.022;2022-10-31T13:02:09;11.77;;;6.70;;
9761;SDS011;4920;49.594;11.022;2022-10-31T13:04:46;13.18;;;6.78;;
9761;SDS011;4920;49.594;11.022;2022-10-31T13:07:23;11.07;;;7.05;;
9761;SDS011;4920;49.594;11.022;2022-10-31T13:09:58;12.70;;;7.00;;
9761;SDS011;4920;49.594;11.022;2022-10-31T13:12:29;15.35;;;7.05;;
9761;SDS011;4920;49.594;11.022;2022-10-31T13:15:04;12.18;;;7.00;;
9761;SDS011;4920;49.594;11.022;2022-10-31T13:17:41;15.25;;;7.28;;
9761;SDS011;4920;49.594;11.022;2022-10-31T13:20:16;10.88;;;6.82;;
9761;SDS011;4920;49.594;11.022;2022-10-31T13:22:49;14.40;;;7.30;;
9761;SDS011;4920;49.594;11.022;2022-10-31T13:25:22;14.40;;;7.50;;
9761;SDS011;4920;49.594;11.022;2022-10-31T13:27:54;12.10;;;7.10;;
9761;SDS011;4920;49.594;11.022;2022-10-31T13:30:26;11.85;;;6.95;;
9761;SDS011;4920;49.594;11.022;2022-10-31T13:32:58;12.55;;;7.15;;
9761;SDS011;4920;49.594;11.022;2022-10-31T13:35:37;14.38;;;7.90;;
9761;SDS011;4920;49.594;11.022;2022-10-31T13:38:15;15.75;;;7.72;;
9761;SDS011;4920;49.594;11.022;2022-10-31T13:40:52;16.10;;;8.05;;
9761;SDS011;4920;49.594;11.022;2022-10-31T13:43:27;17.17;;;7.45;;
9761;SDS011;4920;49.594;11.022;2022-10-31T13:45:59;13.77;;;7.18;;
9761;SDS011;4920;49.594;11.022;2022-10-31T13:48:35;13.95;;;8.13;;
9761;SDS011;4920;49.594;11.022;2022-10-31T13:51:08;14.02;;;8.23;;
9761;SDS011;4920;49.594;11.022;2022-10-31T13:53:38;17.52;;;8.45;;
9761;SDS011;4920;49.594;11.022;2022-10-31T13:56:20;13.43;;;7.97;;
9761;SDS011;4920;49.594;11.022;2022-10-31T13:59:00;15.55;;;9.25;;
9761;SDS011;4920;49.594;11.022;2022-10-31T14:01:50;19.50;;;9.10;;
9761;SDS011;4920;49.594;11.022;2022-10-31T14:04:22;12.82;;;8.75;;
9761;SDS011;4920;49.594;11.022;2022-10-31T14:06:54;13.88;;;9.30;;
9761;SDS011;4920;49.594;11.022;2022-10-31T14:09:27;13.10;;;8.55;;
9761;SDS011;4920;49.594;11.022;2022-10-31T14:12:00;16.60;;;13.43;;
9761;SDS011;4920;49.594;11.022;2022-10-31T14:17:21;14.57;;;8.82;;
9761;SDS011;4920;49.594;11.022;2022-10-31T14:20:02;17.42;;;8.95;;
9761;SDS011;4920;49.594;11.022;2022-10-31T14:22:46;14.23;;;10.30;;
9761;SDS011;4920;49.594;11.022;2022-10-31T14:25:24;13.45;;;8.65;;
9761;SDS011;4920;49.594;11.022;2022-10-31T14:27:59;12.65;;;9.88;;
9761;SDS011;4920;49.594;11.022;2022-10-31T14:30:29;12.43;;;8.50;;
9761;SDS011;4920;49.594;11.022;2022-10-31T14:32:58;15.98;;;8.90;;
9761;SDS011;4920;49.594;11.022;2022-10-31T14:35:42;18.60;;;8.88;;
9761;SDS011;4920;49.594;11.022;2022-10-31T14:38:23;15.00;;;9.60;;
9761;SDS011;4920;49.594;11.022;2022-10-31T14:41:08;14.55;;;8.77;;
9761;SDS011;4920;49.594;11.022;2022-10-31T14:47:05;19.75;;;9.05;;
9761;SDS011;4920;49.594;11.022;2022-10-31T14:49:44;11.80;;;9.32;;
9761;SDS011;4920;49.594;11.022;2022-10-31T14:52:23;13.57;;;9.25;;
9761;SDS011;4920;49.594;11.022;2022-10-31T14:54:52;13.35;;;9.88;;
9761;SDS011;4920;49.594;11.022;2022-10-31T14:57:25;16.98;;;11.18;;
9761;SDS011;4920;49.594;11.022;2022-10-31T14:59:57;20.35;;;12.15;;
9761;SDS011;4920;49.594;11.022;2022-10-31T15:02:31;23.15;;;13.18;;
9761;SDS011;4920;49.594;11.022;2022-10-31T15:05:06;18.35;;;10.73;;
9761;SDS011;4920;49.594;11.022;2022-10-31T15:07:36;17.50;;;11.30;;
9761;SDS011;4920;49.594;11.022;2022-10-31T15:10:19;17.38;;;11.45;;
9761;SDS011;4920;49.594;11.022;2022-10-31T15:12:49;18.00;;;12.35;;
9761;SDS011;4920;49.594;11.022;2022-10-31T15:15:20;23.13;;;15.55;;
9761;SDS011;4920;49.594;11.022;2022-10-31T15:17:51;18.08;;;13.75;;
9761;SDS011;4920;49.594;11.022;2022-10-31T15:20:22;21.30;;;12.98;;
9761;SDS011;4920;49.594;11.022;2022-10-31T15:22:53;15.68;;;11.70;;
9761;SDS011;4920;49.594;11.022;2022-10-31T15:25:24;20.13;;;12.40;;
9761;SDS011;4920;49.594;11.022;2022-10-31T15:27:54;23.83;;;13.00;;
9761;SDS011;4920;49.594;11.022;2022-10-31T15:30:25;25.33;;;17.25;;
9761;SDS011;4920;49.594;11.022;2022-10-31T15:32:54;22.95;;;16.45;;
9761;SDS011;4920;49.594;11.022;2022-10-31T15:35:25;19.20;;;13.77;;
9761;SDS011;4920;49.594;11.022;2022-10-31T15:37:55;16.33;;;12.18;;
9761;SDS011;4920;49.594;11.022;2022-10-31T15:40:26;23.77;;;13.65;;
9761;SDS011;4920;49.594;11.022;2022-10-31T15:42:55;21.80;;;13.02;;
9761;SDS011;4920;49.594;11.022;2022-10-31T15:45:28;18.13;;;12.77;;
9761;SDS011;4920;49.594;11.022;2022-10-31T15:47:58;18.88;;;12.68;;
9761;SDS011;4920;49.594;11.022;2022-10-31T15:50:29;17.02;;;12.52;;